Golden Meadow, Louisiana
Current Conditions -  °F | °C
As of 11:35 PM on Thursday 27 Nov 2014 (Local Time) from KXPY Reporting Station
Clear Clear  
Wind Chill: 54°   Ceiling: Unl
Heat Index: 54°   Visibility: 10mi
Dew Point: 39°   Wind: 12mph
Humidity: 58%   Direction: 50°NE
Pressure: 30.44"   Gusts: 17mph
Location:  29.38°N, 90.26°W
Report Text: KXPY 280535Z AUTO 05010G15KT 10SM CLR 12/04 A3044 RMK A01
Loading
Personal Weather Stations






























Interactive Weather Map New forecast layout! Learn more

10-Day Weather Forecast

Advertisements
Track Severe Weather on mobile